RAIN

Not for real navigation. The accuracy of this data is not assured See disclaimer for more information



ICAO NAME COUNTRY WIND Kt GUST Kt VIS m TEMP/DEW C BARO METAR
YBRM Broome Airport Australia 0 0 150 16/15 29.97 YBRM 192230Z AUTO 00000KT 0150 -SHRA OVC001 16/15 Q1015 RF00.0/000.0
ENNE 14 0 200 11/11 29.85 ENNE 192250Z AUTO 24014KT 0200NDV -RA FG NCD 11/11 Q1011 W///S3
RJDK Kamigoto Japan 10 23 200 25/25 29.56 RJDK 192200Z AUTO VRB10G23KT 0200 +RA FG OVC002 //////CB 25/25 Q1001
EGJB Guernsey Airport United Kingdom 15 0 700 17/17 29.80 EGJB 192250Z 20015KT 0700 RA FG BKN000 17/17 Q1009
RJDT Tsushima Airport Japan 8 0 1000 24/24 29.62 RJDT 192230Z 15008KT 110V200 1000 +SHRA FEW000 SCT001 BKN002 24/24 Q1003

Show more